Time;durP1;ratioP1;P1;durP2;ratioP2;P2;SDS_P1;SDS_P2;PMS_P1;PMS_P2;Temp;Humidity;BMP_temperature;BMP_pressure;BME280_temperature;BME280_humidity;BME280_pressure;Samples;Min_cycle;Max_cycle;Signal;HPM_P1;HPM_P2
2021/11/26 00:00:06;;;;;;;3.57;0.70;;;6.60;99.90;;;;;;5033992;27;37696;-74
2021/11/26 00:02:32;;;;;;;3.53;0.57;;;6.60;99.90;;;;;;5032684;28;47150;-74
2021/11/26 00:04:58;;;;;;;3.00;0.50;;;6.60;99.90;;;;;;5052332;28;41175;-74
2021/11/26 00:07:25;;;;;;;2.73;0.33;;;6.50;99.90;;;;;;5032031;28;39150;-74
2021/11/26 00:09:52;;;;;;;4.53;0.43;;;6.50;99.90;;;;;;5033904;28;38809;-74
2021/11/26 00:12:18;;;;;;;2.57;0.43;;;6.50;99.90;;;;;;5033984;28;40389;-74
2021/11/26 00:15:03;;;;;;;3.60;0.50;;;6.40;99.90;;;;;;5039781;28;39587;-74
2021/11/26 00:17:33;;;;;;;5.23;0.67;;;6.50;99.90;;;;;;5051088;27;48742;-74
2021/11/26 00:19:59;;;;;;;2.07;0.27;;;6.50;99.90;;;;;;5032980;28;37624;-74
2021/11/26 00:22:25;;;;;;;1.63;0.20;;;6.50;99.90;;;;;;5048416;27;39174;-74
2021/11/26 00:24:53;;;;;;;7.13;0.93;;;6.60;99.90;;;;;;5048322;27;39656;-74
2021/11/26 00:27:19;;;;;;;5.20;0.50;;;6.60;99.90;;;;;;5035046;28;35945;-74
2021/11/26 00:29:46;;;;;;;5.93;0.60;;;6.60;99.90;;;;;;5037596;28;38465;-75
2021/11/26 00:32:12;;;;;;;2.90;0.67;;;6.60;99.90;;;;;;5041941;28;40312;-74
2021/11/26 00:34:38;;;;;;;7.73;0.83;;;6.60;99.90;;;;;;5029538;28;39444;-74
2021/11/26 00:37:04;;;;;;;9.67;0.87;;;6.60;99.90;;;;;;5020445;28;39531;-74
2021/11/26 00:39:30;;;;;;;2.47;0.47;;;6.60;99.90;;;;;;5029481;28;37910;-74
2021/11/26 00:41:56;;;;;;;5.30;0.70;;;6.50;99.90;;;;;;5029734;28;39813;-74
2021/11/26 00:44:22;;;;;;;3.97;0.63;;;6.50;99.90;;;;;;5019413;28;38993;-74
2021/11/26 00:46:48;;;;;;;3.03;0.47;;;6.50;99.90;;;;;;5020186;28;40379;-74
2021/11/26 00:49:15;;;;;;;4.20;0.63;;;6.40;99.90;;;;;;5020845;28;39507;-74
2021/11/26 00:51:41;;;;;;;7.03;1.30;;;6.30;99.90;;;;;;5029177;28;38588;-74
2021/11/26 00:54:07;;;;;;;4.53;0.80;;;6.40;99.90;;;;;;5017817;28;40106;-74
2021/11/26 00:56:34;;;;;;;4.67;0.70;;;6.30;99.90;;;;;;5041129;28;38426;-74
2021/11/26 00:59:00;;;;;;;3.47;0.93;;;6.30;99.90;;;;;;5030182;28;37292;-74
2021/11/26 01:01:26;;;;;;;6.83;0.60;;;6.30;99.90;;;;;;5035338;28;39464;-74
2021/11/26 01:03:52;;;;;;;3.73;1.20;;;6.40;99.90;;;;;;5027425;28;39048;-74
2021/11/26 01:06:18;;;;;;;5.47;0.90;;;6.40;99.90;;;;;;5032492;28;39286;-74
2021/11/26 01:08:45;;;;;;;8.07;1.00;;;6.50;99.90;;;;;;5026508;28;37587;-74
2021/11/26 01:11:11;;;;;;;7.00;1.53;;;6.50;99.90;;;;;;5045062;28;37931;-75
2021/11/26 01:13:37;;;;;;;6.83;0.90;;;6.50;99.90;;;;;;5050122;27;38520;-74
2021/11/26 01:16:04;;;;;;;8.07;1.27;;;6.50;99.90;;;;;;5036287;28;37352;-74
2021/11/26 01:18:31;;;;;;;7.03;1.10;;;6.50;99.90;;;;;;5029260;28;37844;-74
2021/11/26 01:20:57;;;;;;;4.57;0.90;;;6.50;99.90;;;;;;5029373;28;38454;-74
2021/11/26 01:23:25;;;;;;;7.17;1.33;;;6.50;99.90;;;;;;5034496;28;38389;-74
2021/11/26 01:25:52;;;;;;;3.33;0.70;;;6.50;99.90;;;;;;5011795;28;39232;-74
2021/11/26 01:28:18;;;;;;;5.17;1.07;;;6.50;99.90;;;;;;5030422;28;37396;-74
2021/11/26 01:30:49;;;;;;;4.03;1.10;;;6.50;99.90;;;;;;5007522;28;39436;-74
2021/11/26 01:33:17;;;;;;;7.13;1.60;;;6.50;99.90;;;;;;5013625;28;38069;-74
2021/11/26 01:35:45;;;;;;;8.40;1.93;;;6.50;99.90;;;;;;5018450;28;36904;-74
2021/11/26 01:38:11;;;;;;;7.97;2.10;;;6.60;99.90;;;;;;5013416;28;36224;-74
2021/11/26 01:40:40;;;;;;;7.67;2.30;;;6.60;99.90;;;;;;5020130;28;38785;-74
2021/11/26 01:43:09;;;;;;;5.27;2.20;;;6.60;99.90;;;;;;5016895;28;40649;-74
2021/11/26 01:45:48;;;;;;;7.37;2.57;;;6.60;99.90;;;;;;5034724;28;39119;-73
2021/11/26 01:48:15;;;;;;;9.80;1.60;;;6.60;99.90;;;;;;5012807;28;36292;-74
2021/11/26 01:50:42;;;;;;;11.00;2.37;;;6.60;99.90;;;;;;5032097;28;38901;-74
2021/11/26 01:53:08;;;;;;;8.30;2.10;;;6.60;99.90;;;;;;5029712;28;39893;-74
2021/11/26 01:55:35;;;;;;;7.07;1.60;;;6.60;99.90;;;;;;5031873;28;37508;-74
2021/11/26 01:58:01;;;;;;;6.30;1.40;;;6.60;99.90;;;;;;5027270;28;37470;-75
2021/11/26 02:00:33;;;;;;;3.83;1.60;;;6.70;99.90;;;;;;5023457;28;45953;-74
2021/11/26 02:02:59;;;;;;;9.85;1.75;;;6.70;99.90;;;;;;5031350;28;39638;-74
2021/11/26 02:05:26;;;;;;;8.70;2.20;;;6.70;99.90;;;;;;5028242;28;38276;-75
2021/11/26 02:07:52;;;;;;;6.63;2.10;;;6.70;99.90;;;;;;5011314;28;36245;-74
2021/11/26 02:10:18;;;;;;;12.27;2.33;;;6.70;99.90;;;;;;5033206;28;39052;-74
2021/11/26 02:12:44;;;;;;;5.90;1.87;;;6.70;99.90;;;;;;5028007;28;36929;-74
2021/11/26 02:15:21;;;;;;;7.83;2.00;;;6.70;99.90;;;;;;5013435;28;37597;-74
2021/11/26 02:17:49;;;;;;;6.77;1.67;;;6.70;99.90;;;;;;5032036;28;38127;-74
2021/11/26 02:20:18;;;;;;;10.40;2.57;;;6.70;99.90;;;;;;5033601;28;39927;-74
2021/11/26 02:22:45;;;;;;;8.20;1.77;;;6.70;99.90;;;;;;5020725;28;39402;-74
2021/11/26 02:25:11;;;;;;;13.73;2.10;;;6.70;99.90;;;;;;5030624;28;39163;-74
2021/11/26 02:27:38;;;;;;;9.73;2.23;;;6.70;99.90;;;;;;5040129;28;36051;-74
2021/11/26 02:30:18;;;;;;;12.47;1.77;;;6.70;99.90;;;;;;5018655;28;38830;-74
2021/11/26 02:32:51;;;;;;;17.93;2.10;;;6.70;99.90;;;;;;5014260;28;47488;-74
2021/11/26 02:35:17;;;;;;;13.45;1.98;;;6.70;99.90;;;;;;5029613;28;38209;-74
2021/11/26 02:37:44;;;;;;;14.67;2.70;;;6.70;99.90;;;;;;5016904;28;36328;-74
2021/11/26 02:40:13;;;;;;;11.80;2.10;;;6.60;99.90;;;;;;5032399;28;38670;-74
2021/11/26 02:42:39;;;;;;;9.07;1.93;;;6.50;99.90;;;;;;5037081;28;38965;-75
2021/11/26 02:45:08;;;;;;;9.33;2.07;;;6.50;99.90;;;;;;5040890;27;38683;-74
2021/11/26 02:47:36;;;;;;;11.80;2.03;;;6.40;99.90;;;;;;5054302;28;36908;-75
2021/11/26 02:50:05;;;;;;;9.63;2.37;;;6.30;99.90;;;;;;5052320;27;38370;-75
2021/11/26 02:52:32;;;;;;;8.13;1.80;;;6.30;99.90;;;;;;5049930;28;48624;-74
2021/11/26 02:54:58;;;;;;;12.00;2.27;;;6.40;99.90;;;;;;5040745;28;37769;-73
2021/11/26 02:57:24;;;;;;;6.07;1.30;;;6.30;99.90;;;;;;5048174;28;38028;-74
2021/11/26 02:59:50;;;;;;;13.73;2.20;;;6.30;99.90;;;;;;5027558;28;39016;-75
2021/11/26 03:02:16;;;;;;;10.60;2.73;;;6.30;99.90;;;;;;5034538;28;37483;-74
2021/11/26 03:04:43;;;;;;;12.77;2.00;;;6.30;99.90;;;;;;5052210;28;39060;-74
2021/11/26 03:07:09;;;;;;;11.00;2.60;;;6.20;99.90;;;;;;5037261;28;36927;-74
2021/11/26 03:09:37;;;;;;;13.37;2.20;;;6.30;99.90;;;;;;5052708;28;38638;-74
2021/11/26 03:12:04;;;;;;;12.00;2.50;;;6.20;99.90;;;;;;5046132;28;39233;-74
2021/11/26 03:14:30;;;;;;;12.07;1.97;;;6.20;99.90;;;;;;5050515;28;38287;-74
2021/11/26 03:16:56;;;;;;;22.07;2.57;;;6.20;99.90;;;;;;5052612;27;37390;-74
2021/11/26 03:19:22;;;;;;;19.73;3.37;;;6.20;99.90;;;;;;5032712;28;37653;-74
2021/11/26 03:21:48;;;;;;;16.40;2.97;;;6.10;99.90;;;;;;5041383;28;37863;-74
2021/11/26 03:24:15;;;;;;;12.90;2.43;;;6.10;99.90;;;;;;5037337;28;38503;-74
2021/11/26 03:26:41;;;;;;;17.13;2.60;;;6.00;99.90;;;;;;5048753;27;37186;-74
2021/11/26 03:29:07;;;;;;;25.70;3.90;;;6.00;99.90;;;;;;5041302;28;37763;-74
2021/11/26 03:31:33;;;;;;;15.17;3.57;;;6.00;99.90;;;;;;5039639;28;39492;-74
2021/11/26 03:33:59;;;;;;;13.10;1.93;;;6.00;99.90;;;;;;5047741;27;38914;-74
2021/11/26 03:36:25;;;;;;;14.43;2.40;;;6.10;99.90;;;;;;5050676;28;38095;-74
2021/11/26 03:38:51;;;;;;;18.60;2.60;;;6.10;99.90;;;;;;5051731;28;38553;-74
2021/11/26 03:41:17;;;;;;;14.07;2.53;;;6.10;99.90;;;;;;5050728;28;37925;-74
2021/11/26 03:43:43;;;;;;;12.20;2.70;;;6.10;99.90;;;;;;5049317;28;38617;-74
2021/11/26 03:46:11;;;;;;;22.07;3.50;;;6.10;99.90;;;;;;5049014;28;37120;-74
2021/11/26 03:48:37;;;;;;;17.13;3.17;;;6.10;99.90;;;;;;5051131;27;38839;-74
2021/11/26 03:51:03;;;;;;;15.30;2.30;;;6.10;99.90;;;;;;5049116;27;39624;-74
2021/11/26 03:53:29;;;;;;;16.60;2.37;;;6.20;99.90;;;;;;5036094;28;38859;-74
2021/11/26 03:55:56;;;;;;;9.63;1.90;;;6.20;99.90;;;;;;5046240;28;38192;-73
2021/11/26 03:58:22;;;;;;;16.03;2.50;;;6.20;99.90;;;;;;5038652;28;39104;-74
2021/11/26 04:00:48;;;;;;;11.63;2.73;;;6.20;99.90;;;;;;5050452;28;38497;-73
2021/11/26 04:03:14;;;;;;;14.50;2.57;;;6.30;99.90;;;;;;5043689;27;36619;-73
2021/11/26 04:05:40;;;;;;;13.83;2.50;;;6.30;99.90;;;;;;5053181;27;37813;-73
2021/11/26 04:08:06;;;;;;;12.90;3.77;;;6.30;99.90;;;;;;5055134;28;38596;-73
2021/11/26 04:10:33;;;;;;;16.67;2.50;;;6.30;99.90;;;;;;5031434;28;38861;-74
2021/11/26 04:12:59;;;;;;;12.67;2.33;;;6.40;99.90;;;;;;5031426;28;36760;-73
2021/11/26 04:15:26;;;;;;;15.70;2.60;;;6.40;99.90;;;;;;5048884;28;37017;-74
2021/11/26 04:17:54;;;;;;;11.03;2.20;;;6.40;99.90;;;;;;5052710;28;39093;-73
2021/11/26 04:20:21;;;;;;;14.03;2.83;;;6.40;99.90;;;;;;5054312;27;40133;-73
2021/11/26 04:22:47;;;;;;;18.47;3.97;;;6.40;99.90;;;;;;5052354;28;38730;-73
2021/11/26 04:25:16;;;;;;;13.37;1.97;;;6.40;99.90;;;;;;5048087;27;38038;-73
2021/11/26 04:27:42;;;;;;;11.73;2.20;;;6.30;99.90;;;;;;5041063;28;38733;-75
2021/11/26 04:30:11;;;;;;;12.47;2.60;;;6.30;99.90;;;;;;5047066;28;38722;-75
2021/11/26 04:32:37;;;;;;;16.43;2.43;;;6.30;99.90;;;;;;5052390;28;38622;-75
2021/11/26 04:35:05;;;;;;;14.40;2.30;;;6.30;99.90;;;;;;5052834;27;37774;-75
2021/11/26 04:37:31;;;;;;;15.37;2.47;;;6.30;99.90;;;;;;5051542;28;48010;-76
2021/11/26 04:39:59;;;;;;;8.73;1.67;;;6.20;99.90;;;;;;5045082;28;39267;-75
2021/11/26 04:42:26;;;;;;;13.77;2.03;;;6.20;99.90;;;;;;5051342;28;39125;-75
2021/11/26 04:44:52;;;;;;;12.73;1.87;;;6.10;99.90;;;;;;5051863;28;36936;-75
2021/11/26 04:47:18;;;;;;;20.50;2.17;;;6.10;99.90;;;;;;5055362;27;38876;-75
2021/11/26 04:49:44;;;;;;;18.07;2.17;;;6.00;99.90;;;;;;5034003;28;39730;-75
2021/11/26 04:52:10;;;;;;;8.90;1.87;;;6.10;99.90;;;;;;5051720;28;38565;-75
2021/11/26 04:54:36;;;;;;;11.83;1.80;;;6.00;99.90;;;;;;5055498;28;36778;-75
2021/11/26 04:57:02;;;;;;;16.27;2.40;;;6.00;99.90;;;;;;5034500;28;39331;-75
2021/11/26 04:59:29;;;;;;;13.10;1.67;;;5.90;99.90;;;;;;5047432;28;38583;-75
2021/11/26 05:01:55;;;;;;;14.87;2.50;;;5.90;99.90;;;;;;5048942;28;36827;-75
2021/11/26 05:04:21;;;;;;;14.23;2.27;;;5.90;99.90;;;;;;5053310;28;37253;-75
2021/11/26 05:06:47;;;;;;;12.97;2.00;;;5.90;99.90;;;;;;5053334;28;39001;-75
2021/11/26 05:09:13;;;;;;;12.43;1.70;;;5.90;99.90;;;;;;5050032;28;39945;-75
2021/11/26 05:11:40;;;;;;;6.63;1.90;;;5.90;99.90;;;;;;5027810;28;39432;-75
2021/11/26 05:14:08;;;;;;;8.77;2.00;;;5.90;99.90;;;;;;5036102;28;38038;-75
2021/11/26 05:16:35;;;;;;;10.47;1.87;;;5.90;99.90;;;;;;5009920;28;39366;-76
2021/11/26 05:19:01;;;;;;;11.13;2.00;;;6.00;99.90;;;;;;5027652;28;38673;-75
2021/11/26 05:21:27;;;;;;;8.50;1.80;;;6.00;99.90;;;;;;5030991;28;48595;-75
2021/11/26 05:23:54;;;;;;;7.53;2.20;;;6.00;99.90;;;;;;5015527;28;37938;-75
2021/11/26 05:26:20;;;;;;;13.57;1.63;;;5.90;99.90;;;;;;5028566;28;38983;-75
2021/11/26 05:28:46;;;;;;;13.37;2.30;;;5.90;99.90;;;;;;5030237;28;39674;-75
2021/11/26 05:31:12;;;;;;;12.63;2.17;;;5.90;99.90;;;;;;5032389;28;38318;-75
2021/11/26 05:33:38;;;;;;;6.80;1.33;;;5.90;99.90;;;;;;5028447;28;37294;-75
2021/11/26 05:36:04;;;;;;;13.73;2.47;;;5.90;99.90;;;;;;5032011;28;38400;-75
2021/11/26 05:38:31;;;;;;;9.53;2.00;;;5.90;99.90;;;;;;5012898;28;39003;-75
2021/11/26 05:40:57;;;;;;;4.73;1.70;;;5.90;99.90;;;;;;5026545;28;38049;-75
2021/11/26 05:43:23;;;;;;;7.97;2.00;;;5.80;99.90;;;;;;5035569;28;35738;-75
2021/11/26 05:45:49;;;;;;;13.27;2.13;;;5.80;99.90;;;;;;5031416;28;38353;-75
2021/11/26 05:48:15;;;;;;;9.57;2.33;;;5.80;99.90;;;;;;5010576;28;39232;-75
2021/11/26 05:50:41;;;;;;;6.93;1.53;;;5.80;99.90;;;;;;5011785;28;39887;-75
2021/11/26 05:53:07;;;;;;;6.30;1.90;;;5.80;99.90;;;;;;5031872;28;37593;-75
2021/11/26 05:55:33;;;;;;;14.43;2.20;;;5.80;99.90;;;;;;5027492;28;38543;-75
2021/11/26 05:58:01;;;;;;;10.73;2.93;;;5.70;99.90;;;;;;5013469;28;38284;-75
2021/11/26 06:00:28;;;;;;;7.30;1.57;;;5.70;99.90;;;;;;5037027;28;46181;-75
2021/11/26 06:02:55;;;;;;;8.13;1.93;;;5.70;99.90;;;;;;5027486;28;37231;-75
2021/11/26 06:05:23;;;;;;;12.17;1.90;;;5.70;99.90;;;;;;5007096;28;37449;-75
2021/11/26 06:07:49;;;;;;;8.47;2.20;;;5.60;99.90;;;;;;5015439;28;39979;-75
2021/11/26 06:10:16;;;;;;;14.63;2.00;;;5.70;99.90;;;;;;5014105;28;39025;-75
2021/11/26 06:12:44;;;;;;;9.47;1.83;;;5.70;99.90;;;;;;5011001;28;38552;-74
2021/11/26 06:15:12;;;;;;;7.83;1.60;;;5.70;99.90;;;;;;5009639;28;40199;-75
2021/11/26 06:17:39;;;;;;;7.00;1.50;;;5.70;99.90;;;;;;5019421;28;38847;-75
2021/11/26 06:20:06;;;;;;;10.20;1.60;;;5.70;99.90;;;;;;5034241;28;39144;-75
2021/11/26 06:22:32;;;;;;;7.77;1.57;;;5.70;99.90;;;;;;5015237;28;36751;-75
2021/11/26 06:24:58;;;;;;;12.00;2.33;;;5.70;99.90;;;;;;5033730;28;38590;-75
2021/11/26 06:27:25;;;;;;;8.67;2.27;;;5.70;99.90;;;;;;5034516;28;38742;-75
2021/11/26 06:29:51;;;;;;;11.83;2.03;;;5.80;99.90;;;;;;5041864;28;38593;-74
2021/11/26 06:32:17;;;;;;;7.57;2.40;;;5.80;99.90;;;;;;5041196;28;37787;-74
2021/11/26 06:34:43;;;;;;;9.03;2.20;;;5.80;99.90;;;;;;5038938;28;37758;-75
2021/11/26 06:37:10;;;;;;;10.67;1.47;;;5.80;99.90;;;;;;5047876;28;39357;-74
2021/11/26 06:39:36;;;;;;;10.47;1.80;;;5.90;99.90;;;;;;5033949;28;38443;-74
2021/11/26 06:42:03;;;;;;;11.10;1.77;;;5.90;99.90;;;;;;5034634;28;37279;-75
2021/11/26 06:44:29;;;;;;;8.40;1.50;;;5.90;99.90;;;;;;5033397;28;39049;-75
2021/11/26 06:46:55;;;;;;;14.37;1.93;;;5.80;99.90;;;;;;5024846;28;39154;-75
2021/11/26 06:49:22;;;;;;;6.37;1.57;;;5.80;99.90;;;;;;5037344;28;40817;-74
2021/11/26 06:51:48;;;;;;;6.67;1.60;;;5.80;99.90;;;;;;5035807;28;37840;-74
2021/11/26 06:54:14;;;;;;;11.67;1.40;;;5.80;99.90;;;;;;5032361;28;38564;-74
2021/11/26 06:56:41;;;;;;;8.67;1.70;;;5.80;99.90;;;;;;5015269;28;38952;-74
2021/11/26 06:59:07;;;;;;;5.60;1.40;;;5.80;99.90;;;;;;5021494;28;39681;-74
2021/11/26 07:01:33;;;;;;;11.20;1.70;;;5.80;99.90;;;;;;5026858;28;37665;-74
2021/11/26 07:04:00;;;;;;;8.70;1.73;;;5.80;99.90;;;;;;5037959;28;39588;-74
2021/11/26 07:06:26;;;;;;;12.03;2.10;;;5.80;99.90;;;;;;5026889;28;39817;-74
2021/11/26 07:08:52;;;;;;;10.07;2.00;;;5.80;99.90;;;;;;5046214;28;38775;-74
2021/11/26 07:11:18;;;;;;;6.47;1.53;;;5.80;99.90;;;;;;5031225;28;37939;-74
2021/11/26 07:13:45;;;;;;;8.83;1.70;;;5.80;99.90;;;;;;5035071;28;38198;-73
2021/11/26 07:16:11;;;;;;;9.07;2.10;;;5.90;99.90;;;;;;5043751;28;38598;-73
2021/11/26 07:18:37;;;;;;;9.80;2.13;;;5.80;99.90;;;;;;5019377;28;40325;-73
2021/11/26 07:21:03;;;;;;;14.47;2.00;;;5.80;99.90;;;;;;5045483;28;37916;-75
2021/11/26 07:23:29;;;;;;;10.60;1.90;;;5.80;99.90;;;;;;5023737;28;39781;-75
2021/11/26 07:25:56;;;;;;;12.60;2.20;;;5.90;99.90;;;;;;5024267;28;38943;-74
2021/11/26 07:28:24;;;;;;;5.23;1.40;;;5.90;99.90;;;;;;5045217;28;39209;-75
2021/11/26 07:30:50;;;;;;;7.53;1.50;;;5.90;99.90;;;;;;5030157;28;37754;-75
2021/11/26 07:33:16;;;;;;;7.60;1.43;;;5.90;99.90;;;;;;5044625;28;38548;-74
2021/11/26 07:35:42;;;;;;;8.33;1.67;;;6.00;99.90;;;;;;5012363;28;40310;-75
2021/11/26 07:38:08;;;;;;;14.17;2.07;;;6.10;99.90;;;;;;5013364;28;38913;-75
2021/11/26 07:40:35;;;;;;;9.60;1.80;;;6.10;99.90;;;;;;5022453;28;36855;-75
2021/11/26 07:43:01;;;;;;;9.90;1.90;;;6.20;99.90;;;;;;5035780;28;38503;-75
2021/11/26 07:45:27;;;;;;;8.87;1.60;;;6.30;99.90;;;;;;5039195;28;47216;-75
2021/11/26 07:47:53;;;;;;;11.17;1.87;;;6.30;99.90;;;;;;5054684;28;39895;-75
2021/11/26 07:50:19;;;;;;;9.80;1.80;;;6.20;99.90;;;;;;5055124;27;37914;-75
2021/11/26 07:52:46;;;;;;;16.00;2.50;;;6.20;99.90;;;;;;5065294;28;39524;-75
2021/11/26 07:55:13;;;;;;;16.97;2.17;;;6.20;99.90;;;;;;5058652;27;38724;-75
2021/11/26 07:57:40;;;;;;;10.03;1.83;;;6.10;99.90;;;;;;5036838;28;40215;-76
2021/11/26 08:00:09;;;;;;;8.83;2.13;;;6.10;99.90;;;;;;5041579;28;36553;-75
2021/11/26 08:02:35;;;;;;;7.40;2.20;;;6.10;99.90;;;;;;5040065;28;47233;-76
2021/11/26 08:05:01;;;;;;;14.60;2.40;;;6.10;99.90;;;;;;5056461;28;39278;-75
2021/11/26 08:07:27;;;;;;;11.83;2.40;;;6.10;99.90;;;;;;5067351;27;48233;-75
2021/11/26 08:09:53;;;;;;;12.30;2.87;;;6.10;99.90;;;;;;5066186;27;37154;-76
2021/11/26 08:12:19;;;;;;;16.77;2.40;;;6.20;99.90;;;;;;5044403;28;40355;-75
2021/11/26 08:14:51;;;;;;;9.30;3.10;;;6.20;99.90;;;;;;5066646;27;39963;-75
2021/11/26 08:17:17;;;;;;;10.80;2.77;;;6.20;99.90;;;;;;5047838;27;38077;-74
2021/11/26 08:19:44;;;;;;;10.00;2.47;;;6.10;99.90;;;;;;5061595;27;38817;-75
2021/11/26 08:22:12;;;;;;;10.77;2.67;;;6.10;99.90;;;;;;5029599;28;39934;-75
2021/11/26 08:24:38;;;;;;;13.03;2.63;;;6.10;99.90;;;;;;5024851;28;39262;-75
2021/11/26 08:27:05;;;;;;;13.27;3.00;;;6.10;99.90;;;;;;5022266;28;38969;-75
2021/11/26 08:29:31;;;;;;;8.93;2.93;;;6.10;99.90;;;;;;5033069;28;37112;-75
2021/11/26 08:31:57;;;;;;;13.80;3.17;;;6.00;99.90;;;;;;5020999;28;40646;-76
2021/11/26 08:34:23;;;;;;;11.57;3.17;;;6.00;99.90;;;;;;5043365;28;38796;-75
2021/11/26 08:36:50;;;;;;;11.73;2.60;;;5.90;99.90;;;;;;5027079;28;39812;-76
2021/11/26 08:39:16;;;;;;;13.33;3.00;;;5.90;99.90;;;;;;5030026;28;37057;-75
2021/11/26 08:41:42;;;;;;;11.17;2.90;;;5.90;99.90;;;;;;5030627;28;39572;-76
2021/11/26 08:44:09;;;;;;;11.57;2.87;;;5.90;99.90;;;;;;5032192;28;39527;-76
2021/11/26 08:46:35;;;;;;;15.03;3.13;;;5.90;99.90;;;;;;5025110;28;38903;-75
2021/11/26 08:49:02;;;;;;;9.43;3.07;;;5.90;99.90;;;;;;5030748;28;38019;-75
2021/11/26 08:51:33;;;;;;;13.87;3.00;;;6.00;99.90;;;;;;5032989;28;39660;-76
2021/11/26 08:54:01;;;;;;;12.30;2.90;;;6.00;99.90;;;;;;5039665;28;38620;-75
2021/11/26 08:56:27;;;;;;;10.90;3.13;;;6.00;99.90;;;;;;5027537;28;46677;-75
2021/11/26 08:58:53;;;;;;;9.63;2.90;;;6.10;99.90;;;;;;5021301;28;38670;-75
2021/11/26 09:01:19;;;;;;;10.23;2.93;;;6.10;99.90;;;;;;5024077;28;39333;-75
2021/11/26 09:03:47;;;;;;;12.07;3.07;;;6.10;99.90;;;;;;5038969;28;38674;-75
2021/11/26 09:06:18;;;;;;;9.30;2.73;;;6.10;99.90;;;;;;5030774;28;38098;-75
2021/11/26 09:08:44;;;;;;;9.20;2.77;;;6.20;99.90;;;;;;5039361;28;38182;-75
2021/11/26 09:11:11;;;;;;;6.93;2.47;;;6.20;99.90;;;;;;5052285;27;38669;-76
2021/11/26 09:13:38;;;;;;;8.97;2.30;;;6.20;99.90;;;;;;5049510;28;39688;-79
2021/11/26 09:16:04;;;;;;;12.17;2.77;;;6.30;99.90;;;;;;5029565;28;40178;-77
2021/11/26 09:18:31;;;;;;;15.33;2.67;;;6.40;99.90;;;;;;5017736;28;38524;-77
2021/11/26 09:20:58;;;;;;;12.07;3.07;;;6.40;99.90;;;;;;5021116;28;40267;-78
2021/11/26 09:23:25;;;;;;;8.37;1.90;;;6.40;99.90;;;;;;5040759;28;39382;-79
2021/11/26 09:25:52;;;;;;;5.73;1.77;;;6.50;99.90;;;;;;5037756;28;38533;-81
2021/11/26 09:28:18;;;;;;;10.20;2.30;;;6.50;99.90;;;;;;5034849;28;37286;-81
2021/11/26 09:30:47;;;;;;;9.43;1.87;;;6.60;99.90;;;;;;5036055;28;38867;-82
2021/11/26 09:33:14;;;;;;;6.73;1.80;;;6.60;99.90;;;;;;5012891;28;37544;-80
2021/11/26 09:35:40;;;;;;;8.00;2.00;;;6.60;99.90;;;;;;5016193;28;37622;-79
2021/11/26 09:38:06;;;;;;;9.83;1.77;;;6.60;99.90;;;;;;5023203;28;35582;-81
2021/11/26 09:40:33;;;;;;;7.97;1.70;;;6.50;99.90;;;;;;5033324;28;38833;-81
2021/11/26 09:43:00;;;;;;;14.93;2.43;;;6.50;99.90;;;;;;5014003;28;37795;-80
2021/11/26 09:45:28;;;;;;;13.87;1.93;;;6.50;99.90;;;;;;5015332;28;37493;-80
2021/11/26 09:47:54;;;;;;;9.80;2.00;;;6.50;99.90;;;;;;5012297;28;35914;-81
2021/11/26 09:50:23;;;;;;;7.87;2.13;;;6.50;99.90;;;;;;5030268;28;38909;-77
2021/11/26 09:52:49;;;;;;;10.40;2.27;;;6.50;99.90;;;;;;5034100;28;38716;-81
2021/11/26 09:55:18;;;;;;;10.30;2.13;;;6.50;99.90;;;;;;5023436;28;37825;-81
2021/11/26 09:57:44;;;;;;;11.73;2.43;;;6.50;99.90;;;;;;5038443;28;37023;-80
2021/11/26 10:00:13;;;;;;;11.67;3.80;;;6.40;99.90;;;;;;5038593;28;39493;-81
2021/11/26 10:02:57;;;;;;;12.27;3.40;;;6.40;99.90;;;;;;5029504;28;37884;-80
2021/11/26 10:05:24;;;;;;;10.57;2.97;;;6.40;99.90;;;;;;5056365;28;38422;-81
2021/11/26 10:07:52;;;;;;;9.37;2.80;;;6.40;99.90;;;;;;5018019;28;36351;-82
2021/11/26 10:10:25;;;;;;;11.93;3.27;;;6.30;99.90;;;;;;5037564;28;38744;-81
2021/11/26 10:13:08;;;;;;;19.07;3.93;;;6.40;99.90;;;;;;5026574;28;37657;-81
2021/11/26 10:16:10;;;;;;;17.90;4.22;;;6.40;99.90;;;;;;5047045;28;47263;-80
2021/11/26 10:18:36;;;;;;;14.77;3.87;;;6.30;99.90;;;;;;5054125;28;48556;-81
2021/11/26 10:21:12;;;;;;;15.40;3.97;;;6.30;99.90;;;;;;5049728;27;39009;-80
2021/11/26 10:23:53;;;;;;;20.97;5.80;;;6.30;99.90;;;;;;5047779;28;38993;-82
2021/11/26 10:26:25;;;;;;;20.63;4.83;;;6.20;99.90;;;;;;5038812;28;39416;-81
2021/11/26 10:29:00;;;;;;;22.05;5.40;;;6.30;99.90;;;;;;5020418;28;37697;-81
2021/11/26 10:31:31;;;;;;;22.10;4.97;;;6.30;99.90;;;;;;5040592;28;37640;-81
2021/11/26 10:34:03;;;;;;;24.13;6.03;;;6.30;99.90;;;;;;5041438;28;39224;-81
2021/11/26 10:36:42;;;;;;;20.38;4.07;;;6.30;99.90;;;;;;5058643;28;48345;-81
2021/11/26 10:39:20;;;;;;;18.77;4.70;;;6.30;99.90;;;;;;5039246;28;36757;-82
2021/11/26 10:42:06;;;;;;;21.00;4.57;;;6.30;99.90;;;;;;5048629;28;38507;-80
2021/11/26 10:44:42;;;;;;;19.20;4.57;;;6.30;99.90;;;;;;5060670;27;48820;-80
2021/11/26 10:49:45;;;;;;;20.37;4.80;;;6.40;99.90;;;;;;5057485;28;37379;-81
2021/11/26 10:52:24;;;;;;;17.80;4.53;;;6.40;99.90;;;;;;5054949;28;39059;-81
2021/11/26 10:57:45;;;;;;;15.83;3.97;;;6.30;99.90;;;;;;5057958;28;48482;-80
2021/11/26 11:00:16;;;;;;;17.00;4.63;;;6.30;99.90;;;;;;5037520;28;36299;-81
2021/11/26 11:02:46;;;;;;;19.40;4.90;;;6.30;99.90;;;;;;5064076;28;39810;-81
2021/11/26 11:05:27;;;;;;;20.23;4.70;;;6.20;99.90;;;;;;5047630;28;37906;-81
2021/11/26 11:07:53;;;;;;;21.23;4.80;;;6.20;99.90;;;;;;5056436;28;38302;-81
2021/11/26 11:10:30;;;;;;;21.23;4.37;;;6.20;99.90;;;;;;5060385;27;38824;-83
2021/11/26 11:12:59;;;;;;;22.27;4.63;;;6.10;99.90;;;;;;5047450;28;38203;-79
2021/11/26 11:15:26;;;;;;;21.37;4.90;;;6.10;99.90;;;;;;5061222;27;38674;-83
2021/11/26 11:17:53;;;;;;;30.43;5.80;;;6.10;99.90;;;;;;5061072;28;38721;-81
2021/11/26 11:20:22;;;;;;;23.77;6.57;;;6.10;99.90;;;;;;5058652;28;37526;-82
2021/11/26 11:22:48;;;;;;;24.83;6.50;;;6.10;99.90;;;;;;5055714;28;38705;-81
2021/11/26 11:25:21;;;;;;;23.40;6.07;;;6.10;99.90;;;;;;5046432;27;37769;-82
2021/11/26 11:27:49;;;;;;;24.50;5.93;;;6.00;99.90;;;;;;5068237;28;38575;-82
2021/11/26 11:30:15;;;;;;;23.07;5.53;;;6.10;99.90;;;;;;5054083;28;38031;-80
2021/11/26 11:32:41;;;;;;;19.03;5.13;;;6.10;99.90;;;;;;5037698;28;37915;-81
2021/11/26 11:35:09;;;;;;;14.10;5.20;;;6.10;99.90;;;;;;5044581;28;38089;-81
2021/11/26 11:37:36;;;;;;;17.17;4.83;;;6.10;99.90;;;;;;5046430;28;37576;-80
2021/11/26 11:40:08;;;;;;;12.70;4.70;;;6.10;99.90;;;;;;5058336;27;36862;-79
2021/11/26 11:42:43;;;;;;;11.43;3.90;;;6.00;99.90;;;;;;5044181;28;47108;-80
2021/11/26 11:45:10;;;;;;;14.43;4.03;;;6.00;99.90;;;;;;5041854;27;39069;-80
2021/11/26 11:47:45;;;;;;;15.37;4.00;;;6.00;99.90;;;;;;5060925;28;38375;-81
2021/11/26 11:50:20;;;;;;;15.17;4.20;;;6.10;99.90;;;;;;5048826;27;37940;-81
2021/11/26 11:52:52;;;;;;;19.67;5.23;;;6.10;99.90;;;;;;5059940;28;39675;-81
2021/11/26 11:55:22;;;;;;;19.05;5.63;;;6.00;99.90;;;;;;5063002;27;39026;-81
2021/11/26 11:57:48;;;;;;;16.00;5.67;;;6.00;99.90;;;;;;5038734;28;37412;-80
2021/11/26 12:00:19;;;;;;;16.00;5.60;;;6.00;99.90;;;;;;5060873;28;37930;-80
2021/11/26 12:02:47;;;;;;;20.57;6.50;;;6.00;99.90;;;;;;5057785;28;39047;-81
2021/11/26 12:05:27;;;;;;;23.40;6.87;;;6.00;99.90;;;;;;5056993;27;40285;-81
2021/11/26 12:08:14;;;;;;;18.07;5.97;;;5.90;99.90;;;;;;5058512;28;38552;-80
2021/11/26 12:10:49;;;;;;;23.47;6.70;;;5.90;99.90;;;;;;5061034;28;49334;-81
2021/11/26 12:13:28;;;;;;;20.10;6.87;;;5.90;99.90;;;;;;5046277;28;37882;-82
2021/11/26 12:16:13;;;;;;;18.33;6.43;;;5.90;99.90;;;;;;5042262;28;37704;-81
2021/11/26 12:18:40;;;;;;;21.83;6.47;;;5.90;99.90;;;;;;5045551;28;48895;-81
2021/11/26 12:21:07;;;;;;;16.83;6.23;;;5.90;99.90;;;;;;5022069;28;38008;-81
2021/11/26 12:23:50;;;;;;;15.37;6.10;;;5.90;99.90;;;;;;5047921;28;39643;-81
2021/11/26 12:26:21;;;;;;;15.93;6.13;;;5.90;99.90;;;;;;5062990;27;38742;-81
2021/11/26 12:28:54;;;;;;;17.33;6.30;;;6.00;99.90;;;;;;5055136;28;38468;-81
2021/11/26 12:31:27;;;;;;;21.03;7.10;;;5.90;99.90;;;;;;5049577;27;37536;-81
2021/11/26 12:34:18;;;;;;;14.60;6.93;;;6.00;99.90;;;;;;5067922;28;39032;-80
2021/11/26 12:36:51;;;;;;;13.83;7.33;;;5.90;99.90;;;;;;5036196;28;47319;-81
2021/11/26 12:39:20;;;;;;;;;;;5.90;99.90;;;;;;5046089;28;38657;-80
2021/11/26 12:41:49;;;;;;;17.00;7.83;;;5.90;99.90;;;;;;5048362;28;38681;-80
2021/11/26 12:44:18;;;;;;;21.07;8.63;;;5.80;99.90;;;;;;5030902;28;38636;-82
2021/11/26 12:46:46;;;;;;;20.70;9.37;;;5.90;99.90;;;;;;5046376;28;38835;-80
2021/11/26 12:52:08;;;;;;;28.10;10.20;;;5.90;99.90;;;;;;5049339;28;38158;-82
2021/11/26 12:54:43;;;;;;;28.17;10.13;;;5.90;99.90;;;;;;5049040;28;46791;-79
2021/11/26 12:57:19;;;;;;;21.27;9.60;;;5.90;99.90;;;;;;5052791;28;39329;-81
2021/11/26 12:59:49;;;;;;;24.90;10.07;;;5.90;99.90;;;;;;5063809;28;38264;-81
2021/11/26 13:02:34;;;;;;;20.27;9.90;;;5.90;99.90;;;;;;5032913;28;38878;-81